createdAt,value
2023-05-05T00:01:08.746Z,99.90
2023-05-05T00:03:35.622Z,99.90
2023-05-05T00:06:03.092Z,99.90
2023-05-05T00:08:29.794Z,99.90
2023-05-05T00:10:57.396Z,99.90
2023-05-05T00:13:24.259Z,99.90
2023-05-05T00:15:52.522Z,99.90
2023-05-05T00:18:20.307Z,99.90
2023-05-05T00:20:47.764Z,99.90
2023-05-05T00:23:15.850Z,99.90
2023-05-05T00:25:42.540Z,99.90
2023-05-05T00:28:09.416Z,99.90
2023-05-05T00:30:37.179Z,99.90
2023-05-05T00:33:04.069Z,99.90
2023-05-05T00:35:30.656Z,99.90
2023-05-05T00:37:57.232Z,99.90
2023-05-05T00:40:25.062Z,99.90
2023-05-05T00:42:52.072Z,99.90
2023-05-05T00:45:19.953Z,99.90
2023-05-05T00:47:49.178Z,99.90
2023-05-05T00:50:26.712Z,99.90
2023-05-05T00:53:05.792Z,99.90
2023-05-05T00:55:33.923Z,99.90
2023-05-05T00:58:03.029Z,99.90
2023-05-05T01:00:30.016Z,99.90
2023-05-05T01:02:57.075Z,99.90
2023-05-05T01:05:24.484Z,99.90
2023-05-05T01:08:21.692Z,99.90
2023-05-05T01:11:01.155Z,99.90
2023-05-05T01:13:55.583Z,99.90
2023-05-05T01:16:27.363Z,99.90
2023-05-05T01:19:19.983Z,99.90
2023-05-05T01:21:55.930Z,99.90
2023-05-05T01:24:48.530Z,99.90
2023-05-05T01:27:48.206Z,99.90
2023-05-05T01:30:42.634Z,99.90
2023-05-05T01:33:14.277Z,99.90
2023-05-05T01:35:47.120Z,99.90
2023-05-05T01:38:20.319Z,99.90
2023-05-05T01:40:50.902Z,99.90
2023-05-05T01:43:20.242Z,99.90
2023-05-05T01:45:48.919Z,99.90
2023-05-05T01:48:18.140Z,99.90
2023-05-05T01:50:46.726Z,99.90
2023-05-05T01:53:16.213Z,99.90
2023-05-05T01:55:43.723Z,99.90
2023-05-05T01:58:11.966Z,99.90
2023-05-05T02:00:39.018Z,99.90
2023-05-05T02:03:08.452Z,99.90
2023-05-05T02:05:36.810Z,99.90
2023-05-05T02:08:04.361Z,99.90
2023-05-05T02:10:31.857Z,99.90
2023-05-05T02:13:01.630Z,99.90
2023-05-05T02:15:30.000Z,99.90
2023-05-05T02:17:58.026Z,99.90
2023-05-05T02:20:25.334Z,99.90
2023-05-05T02:22:51.888Z,99.90
2023-05-05T02:25:18.492Z,99.90
2023-05-05T02:27:50.219Z,99.90
2023-05-05T02:30:19.635Z,99.90
2023-05-05T02:32:52.717Z,99.90
2023-05-05T02:35:23.139Z,99.90
2023-05-05T02:38:01.788Z,99.90
2023-05-05T02:40:31.692Z,99.90
2023-05-05T02:43:03.438Z,99.90
2023-05-05T02:45:30.155Z,99.90
2023-05-05T02:47:56.768Z,99.90
2023-05-05T02:50:23.383Z,99.90
2023-05-05T02:52:49.945Z,99.90
2023-05-05T02:55:16.597Z,99.90
2023-05-05T02:58:05.155Z,99.90
2023-05-05T03:00:43.620Z,99.90
2023-05-05T03:03:33.079Z,99.90
2023-05-05T03:06:10.212Z,99.90
2023-05-05T03:08:50.139Z,99.90
2023-05-05T03:11:27.532Z,99.90
2023-05-05T03:14:10.633Z,99.90
2023-05-05T03:16:39.366Z,99.90
2023-05-05T03:19:10.119Z,99.90
2023-05-05T03:21:37.120Z,99.90
2023-05-05T03:24:18.388Z,99.90
2023-05-05T03:26:46.719Z,99.90
2023-05-05T03:29:14.130Z,99.90
2023-05-05T03:31:41.072Z,99.90
2023-05-05T03:34:08.388Z,99.90
2023-05-05T03:36:35.959Z,99.90
2023-05-05T03:39:02.685Z,99.90
2023-05-05T03:41:29.255Z,99.90
2023-05-05T03:43:55.918Z,99.90
2023-05-05T03:46:22.510Z,99.90
2023-05-05T03:48:49.073Z,99.90
2023-05-05T03:51:15.643Z,99.90
2023-05-05T03:53:42.240Z,99.90
2023-05-05T03:56:09.014Z,99.90
2023-05-05T03:58:35.601Z,99.90
2023-05-05T04:01:02.602Z,99.90
2023-05-05T04:03:29.262Z,99.90
2023-05-05T04:05:55.874Z,99.90
2023-05-05T04:08:22.513Z,99.90
2023-05-05T04:10:49.018Z,99.90
2023-05-05T04:13:15.746Z,99.90
2023-05-05T04:15:48.424Z,99.90
2023-05-05T04:18:14.984Z,99.90
2023-05-05T04:20:41.752Z,99.90
2023-05-05T04:23:08.323Z,99.90
2023-05-05T04:25:35.271Z,99.90
2023-05-05T04:28:01.823Z,99.90
2023-05-05T04:30:28.598Z,99.90
2023-05-05T04:32:55.250Z,99.90
2023-05-05T04:35:22.196Z,99.90
2023-05-05T04:37:48.897Z,99.90
2023-05-05T04:40:16.182Z,99.90
2023-05-05T04:42:42.810Z,99.90
2023-05-05T04:45:10.046Z,99.90
2023-05-05T04:47:40.679Z,99.90
2023-05-05T04:50:08.267Z,99.90
2023-05-05T04:52:35.124Z,99.90
2023-05-05T04:55:01.768Z,99.90
2023-05-05T04:57:29.972Z,99.90
2023-05-05T04:59:56.694Z,99.90
2023-05-05T05:02:23.571Z,99.90
2023-05-05T05:04:50.175Z,99.90
2023-05-05T05:07:16.746Z,99.90
2023-05-05T05:09:43.419Z,99.90
2023-05-05T05:12:10.129Z,99.90
2023-05-05T05:14:40.181Z,99.90
2023-05-05T05:17:07.037Z,99.90
2023-05-05T05:19:34.237Z,99.90
2023-05-05T05:22:00.879Z,99.90
2023-05-05T05:24:27.517Z,99.90
2023-05-05T05:26:54.171Z,99.90
2023-05-05T05:29:20.724Z,99.90
2023-05-05T05:31:47.343Z,99.90
2023-05-05T05:34:13.934Z,99.90
2023-05-05T05:36:40.696Z,99.90
2023-05-05T05:39:07.368Z,99.90
2023-05-05T05:41:33.969Z,99.90
2023-05-05T05:44:00.631Z,99.90
2023-05-05T05:46:27.353Z,99.90
2023-05-05T05:48:54.069Z,99.90
2023-05-05T05:51:20.753Z,99.90
2023-05-05T05:53:47.312Z,99.90
2023-05-05T05:56:14.189Z,99.90
2023-05-05T05:58:40.753Z,99.90
2023-05-05T06:01:07.368Z,99.90
2023-05-05T06:03:34.549Z,99.90
2023-05-05T06:06:01.507Z,99.90
2023-05-05T06:08:28.185Z,99.90
2023-05-05T06:10:54.735Z,99.90
2023-05-05T06:13:21.410Z,99.90
2023-05-05T06:15:48.097Z,99.90
2023-05-05T06:18:14.738Z,99.90
2023-05-05T06:20:41.647Z,99.90
2023-05-05T06:23:08.220Z,99.90
2023-05-05T06:25:34.833Z,99.90
2023-05-05T06:28:02.026Z,99.90
2023-05-05T06:30:28.770Z,99.90
2023-05-05T06:32:55.652Z,99.90
2023-05-05T06:35:22.371Z,99.90
2023-05-05T06:37:49.165Z,99.90
2023-05-05T06:40:16.077Z,99.90
2023-05-05T06:42:42.775Z,99.90
2023-05-05T06:45:09.674Z,99.90
2023-05-05T06:47:36.859Z,99.90
2023-05-05T06:50:03.776Z,99.90
2023-05-05T06:52:30.380Z,99.90
2023-05-05T06:54:56.914Z,99.90
2023-05-05T06:57:23.623Z,99.90
2023-05-05T06:59:50.246Z,99.90
2023-05-05T07:02:16.864Z,99.90
2023-05-05T07:04:44.177Z,99.90
2023-05-05T07:07:10.846Z,99.90
2023-05-05T07:09:37.360Z,99.90
2023-05-05T07:12:04.340Z,99.90
2023-05-05T07:14:30.983Z,99.90
2023-05-05T07:16:57.841Z,99.90
2023-05-05T07:19:24.654Z,99.90
2023-05-05T07:21:51.920Z,99.90
2023-05-05T07:24:18.487Z,99.90
2023-05-05T07:26:45.079Z,99.50
2023-05-05T07:29:11.819Z,99.10
2023-05-05T07:31:38.556Z,98.80
2023-05-05T07:34:05.314Z,98.40
2023-05-05T07:36:32.122Z,97.70
2023-05-05T07:38:58.684Z,97.10
2023-05-05T07:41:25.283Z,96.70
2023-05-05T07:43:51.859Z,96.50
2023-05-05T07:46:18.505Z,96.40
2023-05-05T07:48:45.195Z,96.50
2023-05-05T07:51:11.815Z,95.80
2023-05-05T07:53:38.417Z,95.30
2023-05-05T07:56:05.164Z,95.40
2023-05-05T07:58:31.679Z,94.50
2023-05-05T08:00:58.492Z,94.20
2023-05-05T08:03:25.307Z,94.00
2023-05-05T08:05:55.187Z,92.60
2023-05-05T08:08:24.538Z,92.20
2023-05-05T08:10:52.957Z,91.70
2023-05-05T08:13:19.711Z,91.20
2023-05-05T08:15:46.945Z,91.00
2023-05-05T08:18:14.551Z,91.20
2023-05-05T08:20:41.484Z,91.30
2023-05-05T08:23:08.277Z,91.60
2023-05-05T08:25:34.910Z,91.60
2023-05-05T08:28:01.520Z,91.10
2023-05-05T08:30:28.370Z,90.00
2023-05-05T08:32:55.208Z,88.30
2023-05-05T08:35:22.659Z,87.00
2023-05-05T08:37:51.785Z,84.60
2023-05-05T08:40:21.255Z,80.00
2023-05-05T08:42:48.253Z,75.90
2023-05-05T08:45:18.703Z,71.80
2023-05-05T08:47:45.832Z,70.40
2023-05-05T08:50:13.005Z,69.40
2023-05-05T08:52:43.981Z,68.50
2023-05-05T08:55:26.606Z,70.00
2023-05-05T08:58:02.797Z,71.70
2023-05-05T09:00:30.172Z,73.60
2023-05-05T09:02:58.913Z,75.10
2023-05-05T09:05:26.058Z,76.00
2023-05-05T09:07:53.691Z,76.90
2023-05-05T09:10:20.944Z,78.40
2023-05-05T09:12:50.522Z,79.60
2023-05-05T09:15:17.670Z,80.30
2023-05-05T09:17:44.743Z,80.90
2023-05-05T09:20:13.236Z,80.00
2023-05-05T09:22:41.926Z,79.10
2023-05-05T09:25:17.266Z,77.30
2023-05-05T09:27:49.239Z,74.20
2023-05-05T09:30:24.433Z,73.20
2023-05-05T09:32:53.208Z,73.50
2023-05-05T09:35:20.908Z,72.80
2023-05-05T09:37:48.199Z,73.40
2023-05-05T09:40:18.127Z,75.00
2023-05-05T09:42:45.187Z,74.50
2023-05-05T09:45:17.804Z,74.20
2023-05-05T09:47:48.341Z,71.80
2023-05-05T09:50:18.076Z,70.40
2023-05-05T09:52:59.071Z,68.70
2023-05-05T09:55:26.137Z,67.80
2023-05-05T09:57:52.886Z,67.20
2023-05-05T10:00:20.197Z,64.70
2023-05-05T10:02:47.286Z,62.60
2023-05-05T10:05:18.719Z,61.20
2023-05-05T10:07:47.180Z,59.80
2023-05-05T10:10:16.485Z,57.90
2023-05-05T10:12:45.817Z,56.90
2023-05-05T10:15:15.041Z,57.30
2023-05-05T10:18:02.386Z,57.90
2023-05-05T10:20:33.310Z,57.60
2023-05-05T10:23:02.646Z,57.70
2023-05-05T10:25:33.329Z,57.60
2023-05-05T10:28:01.280Z,55.30
2023-05-05T10:30:31.995Z,53.90
2023-05-05T10:33:30.833Z,53.40
2023-05-05T10:36:02.505Z,54.00
2023-05-05T10:38:31.041Z,52.70
2023-05-05T10:41:01.936Z,53.30
2023-05-05T10:43:30.243Z,53.50
2023-05-05T10:45:57.002Z,52.60
2023-05-05T10:48:40.108Z,53.20
2023-05-05T10:51:39.220Z,52.00
2023-05-05T10:54:20.105Z,52.50
2023-05-05T10:56:47.242Z,51.70
2023-05-05T10:59:32.697Z,52.30
2023-05-05T11:01:59.247Z,52.30
2023-05-05T11:04:25.886Z,52.80
2023-05-05T11:07:12.706Z,54.10
2023-05-05T11:09:55.764Z,55.60
2023-05-05T11:12:22.482Z,56.20
2023-05-05T11:15:24.264Z,57.30
2023-05-05T11:17:50.951Z,56.50
2023-05-05T11:20:17.685Z,54.90
2023-05-05T11:23:03.354Z,54.50
2023-05-05T11:25:36.471Z,55.20
2023-05-05T11:28:30.047Z,55.70
2023-05-05T11:30:57.495Z,55.20
2023-05-05T11:33:31.064Z,52.90
2023-05-05T11:36:06.973Z,53.00
2023-05-05T11:38:56.304Z,50.60
2023-05-05T11:41:32.191Z,49.80
2023-05-05T11:44:20.452Z,47.40
2023-05-05T11:46:52.962Z,46.80
2023-05-05T11:49:33.585Z,47.00
2023-05-05T11:52:13.754Z,47.70
2023-05-05T11:54:41.349Z,48.50
2023-05-05T11:57:08.898Z,48.20
2023-05-05T11:59:37.223Z,48.70
2023-05-05T12:02:04.380Z,49.80
2023-05-05T12:04:31.975Z,50.90
2023-05-05T12:07:01.433Z,50.00
2023-05-05T12:09:28.086Z,51.80
2023-05-05T12:11:56.296Z,53.40
2023-05-05T12:14:24.199Z,53.80
2023-05-05T12:17:09.279Z,53.60
2023-05-05T12:19:36.228Z,52.20
2023-05-05T12:22:04.840Z,52.00
2023-05-05T12:24:31.654Z,52.30
2023-05-05T12:27:08.704Z,52.30
2023-05-05T12:29:35.383Z,51.60
2023-05-05T12:32:02.069Z,51.60
2023-05-05T12:34:29.066Z,52.30
2023-05-05T12:36:55.882Z,53.60
2023-05-05T12:39:22.425Z,53.40
2023-05-05T12:41:49.444Z,53.30
2023-05-05T12:44:15.984Z,53.40
2023-05-05T12:46:49.122Z,54.30
2023-05-05T12:49:17.157Z,54.50
2023-05-05T12:51:54.930Z,54.80
2023-05-05T12:54:23.834Z,55.00
2023-05-05T12:56:50.556Z,54.90
2023-05-05T12:59:23.553Z,55.30
2023-05-05T13:01:52.903Z,55.40
2023-05-05T13:04:21.605Z,55.80
2023-05-05T13:06:50.281Z,56.70
2023-05-05T13:09:28.055Z,57.20
2023-05-05T13:11:54.845Z,56.30
2023-05-05T13:14:22.321Z,55.60
2023-05-05T13:16:49.257Z,55.00
2023-05-05T13:19:16.028Z,54.90
2023-05-05T13:21:42.556Z,54.70
2023-05-05T13:24:25.240Z,54.50
2023-05-05T13:26:56.540Z,55.30
2023-05-05T13:29:25.587Z,55.60
2023-05-05T13:31:54.965Z,55.00
2023-05-05T13:34:21.771Z,55.70
2023-05-05T13:36:48.474Z,55.60
2023-05-05T13:39:16.128Z,56.00
2023-05-05T13:41:44.617Z,56.70
2023-05-05T13:44:11.694Z,55.90
2023-05-05T13:46:38.439Z,55.80
2023-05-05T13:49:05.225Z,56.20
2023-05-05T13:51:32.021Z,56.40
2023-05-05T13:53:58.637Z,56.00
2023-05-05T13:56:27.450Z,56.20
2023-05-05T13:58:54.432Z,57.10
2023-05-05T14:01:21.249Z,56.70
2023-05-05T14:03:47.885Z,57.30
2023-05-05T14:06:14.625Z,56.70
2023-05-05T14:08:41.467Z,57.30
2023-05-05T14:11:08.197Z,56.70
2023-05-05T14:13:34.762Z,57.90
2023-05-05T14:16:01.397Z,57.50
2023-05-05T14:18:28.249Z,57.60
2023-05-05T14:20:54.919Z,57.50
2023-05-05T14:23:21.684Z,57.30
2023-05-05T14:25:48.190Z,57.50
2023-05-05T14:28:14.829Z,57.80
2023-05-05T14:30:41.466Z,57.70
2023-05-05T14:33:08.286Z,57.90
2023-05-05T14:35:34.874Z,57.90
2023-05-05T14:38:01.513Z,58.10
2023-05-05T14:40:29.457Z,58.50
2023-05-05T14:42:55.979Z,58.60
2023-05-05T14:45:22.614Z,59.10
2023-05-05T14:47:49.245Z,59.40
2023-05-05T14:50:15.837Z,59.80
2023-05-05T14:52:44.301Z,59.20
2023-05-05T14:55:11.409Z,59.60
2023-05-05T14:57:38.910Z,60.10
2023-05-05T15:00:07.014Z,60.10
2023-05-05T15:02:33.834Z,60.70
2023-05-05T15:05:00.534Z,60.70
2023-05-05T15:07:28.530Z,61.20
2023-05-05T15:09:58.551Z,61.00
2023-05-05T15:12:26.664Z,61.60
2023-05-05T15:14:53.639Z,61.80
2023-05-05T15:17:20.298Z,60.80
2023-05-05T15:19:46.885Z,58.20
2023-05-05T15:22:13.427Z,58.40
2023-05-05T15:24:40.050Z,58.80
2023-05-05T15:27:06.947Z,60.90
2023-05-05T15:29:33.623Z,61.40
2023-05-05T15:32:00.364Z,64.00
2023-05-05T15:34:27.152Z,67.70
2023-05-05T15:36:54.375Z,70.40
2023-05-05T15:39:20.963Z,74.20
2023-05-05T15:41:48.036Z,77.20
2023-05-05T15:44:14.761Z,81.50
2023-05-05T15:46:41.417Z,83.60
2023-05-05T15:49:08.053Z,88.10
2023-05-05T15:51:34.632Z,91.20
2023-05-05T15:54:01.462Z,92.90
2023-05-05T15:56:29.292Z,94.50
2023-05-05T15:58:56.701Z,96.30
2023-05-05T16:01:23.329Z,97.30
2023-05-05T16:03:49.978Z,98.40
2023-05-05T16:06:16.591Z,98.80
2023-05-05T16:08:43.198Z,99.10
2023-05-05T16:11:09.825Z,99.90
2023-05-05T16:13:36.466Z,99.90
2023-05-05T16:16:03.037Z,99.90
2023-05-05T16:18:29.733Z,99.90
2023-05-05T16:20:56.310Z,99.90
2023-05-05T16:23:23.180Z,99.90
2023-05-05T16:25:49.729Z,99.90
2023-05-05T16:28:16.348Z,99.90
2023-05-05T16:30:43.195Z,99.90
2023-05-05T16:33:09.989Z,99.90
2023-05-05T16:35:36.676Z,99.90
2023-05-05T16:38:03.446Z,99.90
2023-05-05T16:40:30.356Z,99.90
2023-05-05T16:42:56.896Z,99.90
2023-05-05T16:45:24.243Z,99.90
2023-05-05T16:47:51.070Z,99.90
2023-05-05T16:50:17.836Z,99.90
2023-05-05T16:52:44.420Z,99.90
2023-05-05T16:55:11.136Z,99.90
2023-05-05T16:57:37.998Z,99.90
2023-05-05T17:00:06.471Z,99.90
2023-05-05T17:02:33.476Z,99.90
2023-05-05T17:05:00.254Z,99.90
2023-05-05T17:07:27.228Z,99.90
2023-05-05T17:09:53.780Z,99.90
2023-05-05T17:12:20.575Z,99.90
2023-05-05T17:14:47.406Z,99.90
2023-05-05T17:17:14.267Z,99.90
2023-05-05T17:19:42.521Z,99.90
2023-05-05T17:22:09.220Z,99.90
2023-05-05T17:24:36.266Z,99.90
2023-05-05T17:27:03.227Z,99.90
2023-05-05T17:29:30.041Z,99.90
2023-05-05T17:31:56.694Z,99.90
2023-05-05T17:34:23.276Z,99.90
2023-05-05T17:36:49.819Z,99.90
2023-05-05T17:39:16.370Z,99.90
2023-05-05T17:41:43.124Z,99.90
2023-05-05T17:44:09.668Z,99.90
2023-05-05T17:46:36.332Z,99.90
2023-05-05T17:49:03.035Z,99.90
2023-05-05T17:51:29.687Z,99.90
2023-05-05T17:53:58.775Z,99.90
2023-05-05T17:56:25.660Z,99.90
2023-05-05T17:58:53.344Z,99.90
2023-05-05T18:01:24.570Z,99.90
2023-05-05T18:03:51.301Z,99.90
2023-05-05T18:06:18.063Z,99.90
2023-05-05T18:08:44.880Z,99.90
2023-05-05T18:11:14.636Z,99.90
2023-05-05T18:13:44.190Z,99.90
2023-05-05T18:16:11.001Z,99.90
2023-05-05T18:18:41.237Z,99.90
2023-05-05T18:21:11.954Z,99.90
2023-05-05T18:23:40.019Z,99.90
2023-05-05T18:26:07.143Z,99.90
2023-05-05T18:28:33.724Z,99.90
2023-05-05T18:31:00.384Z,99.90
2023-05-05T18:33:27.004Z,99.90
2023-05-05T18:35:53.734Z,99.90
2023-05-05T18:38:21.349Z,99.90
2023-05-05T18:40:51.199Z,99.90
2023-05-05T18:43:17.862Z,99.90
2023-05-05T18:45:44.408Z,99.90
2023-05-05T18:48:11.664Z,99.90
2023-05-05T18:50:38.267Z,99.90
2023-05-05T18:53:07.474Z,99.90
2023-05-05T18:55:34.302Z,99.90
2023-05-05T18:58:00.925Z,99.90
2023-05-05T19:00:27.487Z,99.90
2023-05-05T19:02:54.432Z,99.90
2023-05-05T19:05:21.353Z,99.90
2023-05-05T19:07:48.045Z,99.90
2023-05-05T19:10:14.664Z,99.90
2023-05-05T19:12:41.538Z,99.90
2023-05-05T19:15:08.800Z,99.90
2023-05-05T19:17:35.634Z,99.90
2023-05-05T19:20:03.017Z,99.90
2023-05-05T19:22:29.546Z,99.90
2023-05-05T19:24:58.318Z,99.90
2023-05-05T19:27:25.089Z,99.90
2023-05-05T19:29:57.072Z,99.90
2023-05-05T19:32:23.765Z,99.90
2023-05-05T19:34:54.242Z,99.90
2023-05-05T19:37:21.253Z,99.90
2023-05-05T19:39:49.074Z,99.90
2023-05-05T19:42:16.667Z,99.90
2023-05-05T19:44:43.257Z,99.90
2023-05-05T19:47:12.290Z,99.90
2023-05-05T19:49:39.011Z,99.90
2023-05-05T19:52:05.690Z,99.90
2023-05-05T19:54:32.296Z,99.90
2023-05-05T19:56:58.909Z,99.90
2023-05-05T19:59:25.454Z,99.90
2023-05-05T20:01:52.189Z,99.90
2023-05-05T20:04:18.861Z,99.90
2023-05-05T20:06:45.930Z,99.90
2023-05-05T20:09:12.572Z,99.90
2023-05-05T20:11:39.259Z,99.90
2023-05-05T20:14:05.806Z,99.90
2023-05-05T20:16:33.449Z,99.90
2023-05-05T20:19:00.246Z,99.90
2023-05-05T20:21:27.000Z,99.90
2023-05-05T20:23:54.544Z,99.90
2023-05-05T20:26:21.560Z,99.90
2023-05-05T20:28:48.128Z,99.90
2023-05-05T20:31:14.889Z,99.90
2023-05-05T20:33:41.730Z,99.90
2023-05-05T20:36:08.294Z,99.90
2023-05-05T20:38:34.889Z,99.90
2023-05-05T20:41:01.588Z,99.90
2023-05-05T20:43:28.267Z,99.90
2023-05-05T20:45:54.906Z,99.90
2023-05-05T20:48:21.580Z,99.90
2023-05-05T20:50:48.080Z,99.90
2023-05-05T20:53:16.020Z,99.90
2023-05-05T20:55:42.903Z,99.90
2023-05-05T20:58:09.522Z,99.90
2023-05-05T21:00:36.176Z,99.90
2023-05-05T21:03:03.063Z,99.90
2023-05-05T21:05:30.723Z,99.90
2023-05-05T21:07:58.511Z,99.90
2023-05-05T21:10:27.232Z,99.90
2023-05-05T21:12:53.820Z,99.90
2023-05-05T21:15:20.469Z,99.90
2023-05-05T21:17:47.651Z,99.90
2023-05-05T21:20:14.303Z,99.90
2023-05-05T21:22:40.976Z,99.90
2023-05-05T21:25:11.998Z,99.90
2023-05-05T21:27:38.721Z,99.90
2023-05-05T21:30:06.757Z,99.90
2023-05-05T21:32:35.359Z,99.90
2023-05-05T21:35:02.033Z,99.90
2023-05-05T21:37:28.556Z,99.90
2023-05-05T21:39:55.186Z,99.90
2023-05-05T21:42:21.990Z,99.90
2023-05-05T21:44:48.523Z,99.90
2023-05-05T21:47:15.165Z,99.90
2023-05-05T21:49:41.701Z,99.90
2023-05-05T21:52:08.349Z,99.90
2023-05-05T21:54:34.989Z,99.90
2023-05-05T21:57:02.649Z,99.90
2023-05-05T21:59:29.200Z,99.90
2023-05-05T22:01:55.917Z,99.90
2023-05-05T22:04:22.471Z,99.90
2023-05-05T22:06:49.141Z,99.90
2023-05-05T22:09:16.165Z,99.90
2023-05-05T22:11:42.758Z,99.90
2023-05-05T22:14:09.572Z,99.90
2023-05-05T22:16:36.193Z,99.90
2023-05-05T22:19:02.830Z,99.90
2023-05-05T22:21:29.333Z,99.90
2023-05-05T22:23:56.078Z,99.90
2023-05-05T22:26:23.006Z,99.90
2023-05-05T22:28:49.829Z,99.90
2023-05-05T22:31:16.634Z,99.90
2023-05-05T22:33:43.299Z,99.90
2023-05-05T22:36:11.500Z,99.90
2023-05-05T22:38:38.300Z,99.90
2023-05-05T22:41:07.130Z,99.90
2023-05-05T22:43:33.712Z,99.90
2023-05-05T22:46:01.052Z,99.90
2023-05-05T22:48:27.594Z,99.90
2023-05-05T22:50:54.206Z,99.90
2023-05-05T22:53:23.112Z,99.90
2023-05-05T22:55:51.504Z,99.90
2023-05-05T22:58:18.477Z,99.90
2023-05-05T23:00:45.081Z,99.90
2023-05-05T23:03:12.076Z,99.90
2023-05-05T23:05:39.801Z,99.90
2023-05-05T23:08:06.539Z,99.90
2023-05-05T23:10:33.807Z,99.90
2023-05-05T23:13:00.396Z,99.90
2023-05-05T23:15:27.011Z,99.90
2023-05-05T23:17:53.658Z,99.90
2023-05-05T23:20:20.292Z,99.90
2023-05-05T23:22:46.862Z,99.90
2023-05-05T23:25:13.426Z,99.90
2023-05-05T23:27:40.981Z,99.90
2023-05-05T23:30:11.005Z,99.90
2023-05-05T23:32:37.732Z,99.90
2023-05-05T23:35:04.821Z,99.90
2023-05-05T23:37:31.430Z,99.90
2023-05-05T23:39:58.139Z,99.90
2023-05-05T23:42:24.811Z,99.90
2023-05-05T23:44:51.487Z,99.90
2023-05-05T23:47:18.207Z,99.90
2023-05-05T23:49:44.802Z,99.90
2023-05-05T23:52:11.619Z,99.90
2023-05-05T23:54:38.145Z,99.90
2023-05-05T23:57:04.901Z,99.90
2023-05-05T23:59:31.460Z,99.90
